createdAt,value
2022-10-03T00:04:28.599Z,4
2022-10-03T00:14:34.020Z,5
2022-10-03T00:24:41.190Z,4
2022-10-03T00:34:46.840Z,6
2022-10-03T00:44:52.320Z,8
2022-10-03T00:54:58.830Z,6
2022-10-03T01:05:04.793Z,6
2022-10-03T01:15:10.429Z,9
2022-10-03T01:25:16.544Z,9
2022-10-03T01:35:22.542Z,7
2022-10-03T01:45:28.931Z,9
2022-10-03T01:55:34.809Z,11
2022-10-03T02:05:39.727Z,9
2022-10-03T02:15:44.840Z,9
2022-10-03T02:25:49.187Z,12
2022-10-03T02:35:54.465Z,11
2022-10-03T02:46:01.615Z,11
2022-10-03T02:56:07.694Z,8
2022-10-03T03:06:11.665Z,10
2022-10-03T03:16:18.682Z,9
2022-10-03T03:26:23.533Z,9
2022-10-03T03:36:30.100Z,10
2022-10-03T03:46:36.882Z,12
2022-10-03T03:56:42.713Z,9
2022-10-03T04:06:49.572Z,10
2022-10-03T04:16:56.431Z,10
2022-10-03T04:26:59.306Z,10
2022-10-03T04:37:04.676Z,12
2022-10-03T04:47:12.230Z,12
2022-10-03T04:57:19.382Z,15
2022-10-03T05:07:26.117Z,13
2022-10-03T05:17:32.947Z,16
2022-10-03T05:27:39.220Z,11
2022-10-03T05:37:43.690Z,12
2022-10-03T05:47:50.802Z,14
2022-10-03T05:57:56.889Z,14
2022-10-03T06:08:02.844Z,14
2022-10-03T06:18:13.344Z,16
2022-10-03T06:28:13.085Z,13
2022-10-03T06:38:19.745Z,15
2022-10-03T06:48:26.126Z,16
2022-10-03T06:58:31.966Z,16
2022-10-03T07:08:37.345Z,21
2022-10-03T07:18:42.708Z,13
2022-10-03T07:28:48.866Z,11
2022-10-03T07:38:55.404Z,15
2022-10-03T07:49:00.993Z,17
2022-10-03T07:59:05.986Z,19
2022-10-03T08:09:14.346Z,13
2022-10-03T08:19:18.761Z,13
2022-10-03T08:29:24.545Z,28
2022-10-03T08:39:29.939Z,37
2022-10-03T08:49:35.793Z,18
2022-10-03T08:59:40.381Z,34
2022-10-03T09:09:45.606Z,31
2022-10-03T09:19:51.137Z,33
2022-10-03T09:29:57.311Z,27
2022-10-03T09:40:02.871Z,29
2022-10-03T09:50:09.695Z,24
2022-10-03T10:00:14.278Z,22
2022-10-03T10:10:20.192Z,14
2022-10-03T10:20:27.635Z,10
2022-10-03T10:30:33.347Z,8
2022-10-03T10:40:38.637Z,7
2022-10-03T10:50:46.411Z,8
2022-10-03T11:00:50.964Z,7
2022-10-03T11:10:57.482Z,11
2022-10-03T11:21:04.533Z,19
2022-10-03T11:31:09.488Z,9
2022-10-03T11:41:17.276Z,6
2022-10-03T11:51:22.294Z,7
2022-10-03T12:01:29.321Z,9
2022-10-03T12:11:35.680Z,8
2022-10-03T12:21:41.147Z,7
2022-10-03T12:31:51.017Z,5
2022-10-03T12:41:54.033Z,4
2022-10-03T12:52:00.465Z,4
2022-10-03T13:02:08.895Z,5
2022-10-03T13:12:12.318Z,5
2022-10-03T13:22:43.803Z,9
2022-10-03T13:32:38.261Z,6
2022-10-03T13:42:44.568Z,6
2022-10-03T13:52:51.388Z,7
2022-10-03T14:02:58.232Z,11
2022-10-03T14:13:37.326Z,7
2022-10-03T14:23:30.388Z,5
2022-10-03T14:33:36.563Z,9
2022-10-03T14:43:42.118Z,8
2022-10-03T14:53:49.532Z,6
2022-10-03T15:03:55.799Z,9
2022-10-03T15:14:00.110Z,14
2022-10-03T15:24:05.390Z,9
2022-10-03T15:34:12.285Z,9
2022-10-03T15:44:18.953Z,6
2022-10-03T15:54:24.538Z,7
2022-10-03T16:04:31.047Z,7
2022-10-03T16:14:36.600Z,9
2022-10-03T16:24:41.837Z,8
2022-10-03T16:34:46.737Z,9
2022-10-03T16:44:52.712Z,10
2022-10-03T16:54:58.763Z,20
2022-10-03T17:05:04.120Z,37
2022-10-03T17:15:10.236Z,88
2022-10-03T17:25:18.130Z,24
2022-10-03T17:35:23.784Z,21
2022-10-03T17:45:34.610Z,31
2022-10-03T17:55:35.515Z,27
2022-10-03T18:05:41.830Z,20
2022-10-03T18:15:48.447Z,21
2022-10-03T18:26:18.408Z,18
2022-10-03T18:36:14.056Z,17
2022-10-03T18:46:19.368Z,11
2022-10-03T18:56:23.604Z,14
2022-10-03T19:06:30.586Z,11
2022-10-03T19:16:37.711Z,15
2022-10-03T19:26:43.369Z,15
2022-10-03T19:36:49.427Z,13
2022-10-03T19:46:57.318Z,14
2022-10-03T19:57:04.476Z,27
2022-10-03T20:07:08.587Z,36
2022-10-03T20:17:15.849Z,31
2022-10-03T20:27:23.571Z,17
2022-10-03T20:37:30.064Z,16
2022-10-03T20:47:36.105Z,14
2022-10-03T20:57:42.787Z,20
2022-10-03T21:07:49.610Z,14
2022-10-03T21:17:55.307Z,15
2022-10-03T21:28:01.681Z,17
2022-10-03T21:38:08.302Z,13
2022-10-03T21:48:12.649Z,11
2022-10-03T21:58:20.550Z,12
2022-10-03T22:08:25.915Z,10
2022-10-03T22:18:33.376Z,11
2022-10-03T22:28:41.035Z,11
2022-10-03T22:38:47.328Z,13
2022-10-03T22:48:55.707Z,19
2022-10-03T22:59:01.787Z,20
2022-10-03T23:09:07.558Z,24
2022-10-03T23:19:13.441Z,18
2022-10-03T23:29:19.433Z,13
2022-10-03T23:39:25.601Z,11
2022-10-03T23:49:30.883Z,8
2022-10-03T23:59:37.654Z,7
